createdAt,value
2023-04-05T00:00:45.494Z,3.53
2023-04-05T00:01:45.501Z,3.50
2023-04-05T00:02:45.504Z,3.52
2023-04-05T00:03:45.578Z,3.50
2023-04-05T00:04:45.518Z,3.49
2023-04-05T00:05:45.463Z,3.46
2023-04-05T00:06:45.465Z,3.46
2023-04-05T00:07:45.401Z,3.45
2023-04-05T00:08:45.435Z,3.42
2023-04-05T00:09:45.391Z,3.42
2023-04-05T00:10:45.397Z,3.41
2023-04-05T00:11:45.359Z,3.41
2023-04-05T00:12:45.368Z,3.39
2023-04-05T00:13:45.372Z,3.39
2023-04-05T00:14:45.337Z,3.35
2023-04-05T00:15:45.325Z,3.35
2023-04-05T00:16:45.361Z,3.35
2023-04-05T00:17:45.373Z,3.34
2023-04-05T00:18:45.312Z,3.33
2023-04-05T00:19:45.272Z,3.31
2023-04-05T00:20:45.267Z,3.34
2023-04-05T00:21:45.242Z,3.35
2023-04-05T00:22:45.219Z,3.39
2023-04-05T00:23:45.264Z,3.35
2023-04-05T00:24:45.253Z,3.37
2023-04-05T00:25:45.196Z,3.37
2023-04-05T00:26:45.189Z,3.37
2023-04-05T00:27:45.166Z,3.39
2023-04-05T00:28:45.175Z,3.41
2023-04-05T00:29:45.149Z,3.45
2023-04-05T00:30:45.150Z,3.45
2023-04-05T00:31:45.137Z,3.45
2023-04-05T00:32:45.138Z,3.45
2023-04-05T00:33:45.099Z,3.44
2023-04-05T00:34:45.072Z,3.44
2023-04-05T00:35:45.102Z,3.42
2023-04-05T00:36:45.070Z,3.41
2023-04-05T00:37:45.033Z,3.42
2023-04-05T00:38:45.033Z,3.44
2023-04-05T00:39:45.035Z,3.44
2023-04-05T00:40:45.016Z,3.46
2023-04-05T00:41:47.554Z,3.50
2023-04-05T00:42:44.956Z,3.54
2023-04-05T00:43:44.948Z,3.56
2023-04-05T00:44:44.943Z,3.59
2023-04-05T00:45:44.964Z,3.62
2023-04-05T00:46:44.912Z,3.62
2023-04-05T00:47:45.062Z,3.63
2023-04-05T00:48:44.903Z,3.67
2023-04-05T00:49:44.883Z,3.70
2023-04-05T00:50:44.911Z,3.70
2023-04-05T00:51:44.832Z,3.71
2023-04-05T00:52:44.848Z,3.72
2023-04-05T00:53:44.914Z,3.71
2023-04-05T00:54:44.835Z,3.70
2023-04-05T00:55:44.827Z,3.70
2023-04-05T00:56:44.782Z,3.70
2023-04-05T00:57:44.800Z,3.68
2023-04-05T00:58:44.792Z,3.70
2023-04-05T00:59:44.718Z,3.70
2023-04-05T01:00:44.762Z,3.67
2023-04-05T01:01:44.826Z,3.67
2023-04-05T01:02:44.769Z,3.67
2023-04-05T01:03:44.790Z,3.67
2023-04-05T01:04:44.705Z,3.67
2023-04-05T01:05:44.711Z,3.67
2023-04-05T01:06:44.686Z,3.67
2023-04-05T01:07:44.652Z,3.67
2023-04-05T01:08:44.614Z,3.67
2023-04-05T01:09:44.644Z,3.67
2023-04-05T01:10:44.681Z,3.67
2023-04-05T01:11:44.592Z,3.67
2023-04-05T01:12:44.592Z,3.64
2023-04-05T01:13:44.557Z,3.64
2023-04-05T01:14:44.629Z,3.64
2023-04-05T01:15:44.561Z,3.64
2023-04-05T01:16:44.523Z,3.64
2023-04-05T01:17:44.555Z,3.63
2023-04-05T01:18:44.484Z,3.63
2023-04-05T01:19:44.530Z,3.63
2023-04-05T01:20:44.489Z,3.62
2023-04-05T01:21:44.474Z,3.63
2023-04-05T01:22:44.478Z,3.62
2023-04-05T01:23:44.465Z,3.60
2023-04-05T01:24:44.449Z,3.62
2023-04-05T01:25:44.465Z,3.60
2023-04-05T01:26:44.422Z,3.62
2023-04-05T01:27:44.400Z,3.63
2023-04-05T01:28:44.400Z,3.64
2023-04-05T01:29:44.349Z,3.67
2023-04-05T01:30:44.361Z,3.68
2023-04-05T01:31:44.367Z,3.68
2023-04-05T01:32:44.366Z,3.68
2023-04-05T01:33:44.304Z,3.70
2023-04-05T01:34:44.337Z,3.71
2023-04-05T01:35:44.295Z,3.72
2023-04-05T01:36:44.275Z,3.72
2023-04-05T01:37:44.289Z,3.72
2023-04-05T01:38:44.270Z,3.74
2023-04-05T01:39:44.205Z,3.72
2023-04-05T01:40:44.230Z,3.74
2023-04-05T01:41:44.185Z,3.72
2023-04-05T01:42:44.208Z,3.72
2023-04-05T01:43:44.197Z,3.74
2023-04-05T01:44:44.137Z,3.71
2023-04-05T01:45:44.195Z,3.71
2023-04-05T01:46:44.167Z,3.71
2023-04-05T01:47:44.114Z,3.70
2023-04-05T01:48:44.156Z,3.71
2023-04-05T01:49:44.060Z,3.68
2023-04-05T01:50:44.275Z,3.67
2023-04-05T01:51:44.091Z,3.64
2023-04-05T01:52:44.045Z,3.64
2023-04-05T01:53:44.059Z,3.64
2023-04-05T01:54:44.046Z,3.62
2023-04-05T01:55:44.030Z,3.62
2023-04-05T01:56:44.001Z,3.63
2023-04-05T01:57:44.035Z,3.60
2023-04-05T01:58:44.035Z,3.60
2023-04-05T01:59:43.975Z,3.59
2023-04-05T02:00:44.539Z,3.59
2023-04-05T02:01:43.931Z,3.57
2023-04-05T02:02:44.059Z,3.57
2023-04-05T02:03:43.961Z,3.56
2023-04-05T02:04:43.936Z,3.57
2023-04-05T02:05:43.884Z,3.57
2023-04-05T02:06:43.919Z,3.57
2023-04-05T02:07:43.869Z,3.56
2023-04-05T02:08:43.857Z,3.56
2023-04-05T02:09:43.822Z,3.54
2023-04-05T02:10:43.818Z,3.53
2023-04-05T02:11:43.816Z,3.53
2023-04-05T02:12:43.812Z,3.52
2023-04-05T02:13:43.769Z,3.52
2023-04-05T02:14:43.809Z,3.52
2023-04-05T02:15:43.784Z,3.49
2023-04-05T02:16:43.887Z,3.49
2023-04-05T02:17:43.779Z,3.50
2023-04-05T02:18:43.735Z,3.50
2023-04-05T02:19:43.704Z,3.49
2023-04-05T02:20:43.710Z,3.49
2023-04-05T02:21:43.680Z,3.49
2023-04-05T02:22:43.682Z,3.49
2023-04-05T02:23:43.645Z,3.46
2023-04-05T02:24:43.691Z,3.45
2023-04-05T02:25:43.619Z,3.45
2023-04-05T02:26:43.617Z,3.45
2023-04-05T02:27:43.582Z,3.45
2023-04-05T02:28:43.614Z,3.45
2023-04-05T02:29:43.608Z,3.44
2023-04-05T02:30:43.833Z,3.44
2023-04-05T02:31:43.719Z,3.42
2023-04-05T02:32:43.641Z,3.42
2023-04-05T02:33:43.666Z,3.41
2023-04-05T02:34:43.604Z,3.41
2023-04-05T02:35:43.526Z,3.39
2023-04-05T02:36:43.510Z,3.35
2023-04-05T02:37:43.454Z,3.34
2023-04-05T02:38:43.441Z,3.31
2023-04-05T02:39:43.493Z,3.28
2023-04-05T02:40:43.436Z,3.25
2023-04-05T02:41:43.436Z,3.23
2023-04-05T02:42:43.428Z,3.23
2023-04-05T02:43:43.386Z,3.22
2023-04-05T02:44:43.404Z,3.20
2023-04-05T02:45:44.969Z,3.20
2023-04-05T02:46:43.374Z,3.16
2023-04-05T02:47:43.369Z,3.15
2023-04-05T02:48:43.359Z,3.15
2023-04-05T02:49:43.330Z,3.15
2023-04-05T02:50:43.442Z,3.10
2023-04-05T02:51:43.313Z,3.08
2023-04-05T02:52:43.286Z,3.08
2023-04-05T02:53:43.273Z,3.07
2023-04-05T02:54:43.270Z,3.07
2023-04-05T02:55:43.399Z,3.02
2023-04-05T02:56:43.220Z,2.99
2023-04-05T02:57:45.302Z,2.97
2023-04-05T02:58:43.199Z,2.94
2023-04-05T02:59:43.233Z,2.95
2023-04-05T03:00:43.189Z,2.92
2023-04-05T03:01:43.171Z,2.94
2023-04-05T03:02:43.192Z,2.90
2023-04-05T03:03:43.207Z,2.89
2023-04-05T03:04:43.136Z,2.89
2023-04-05T03:05:43.223Z,2.84
2023-04-05T03:06:43.108Z,2.86
2023-04-05T03:07:43.102Z,2.84
2023-04-05T03:08:43.064Z,2.84
2023-04-05T03:09:43.070Z,2.83
2023-04-05T03:10:43.059Z,2.83
2023-04-05T03:11:43.025Z,2.80
2023-04-05T03:12:43.027Z,2.80
2023-04-05T03:13:43.019Z,2.79
2023-04-05T03:14:43.024Z,2.76
2023-04-05T03:15:43.144Z,2.76
2023-04-05T03:16:43.015Z,2.74
2023-04-05T03:17:43.035Z,2.74
2023-04-05T03:18:42.960Z,2.73
2023-04-05T03:19:42.928Z,2.71
2023-04-05T03:20:42.988Z,2.66
2023-04-05T03:21:42.932Z,2.66
2023-04-05T03:22:42.901Z,2.65
2023-04-05T03:23:42.862Z,2.65
2023-04-05T03:24:42.880Z,2.63
2023-04-05T03:25:43.058Z,2.62
2023-04-05T03:26:42.844Z,2.58
2023-04-05T03:27:42.794Z,2.56
2023-04-05T03:28:42.806Z,2.55
2023-04-05T03:29:42.788Z,2.53
2023-04-05T03:30:42.824Z,2.53
2023-04-05T03:31:42.805Z,2.51
2023-04-05T03:32:42.761Z,2.51
2023-04-05T03:33:42.732Z,2.48
2023-04-05T03:34:42.742Z,2.48
2023-04-05T03:35:43.031Z,2.47
2023-04-05T03:36:42.871Z,2.45
2023-04-05T03:37:42.684Z,2.44
2023-04-05T03:38:42.732Z,2.43
2023-04-05T03:39:42.685Z,2.41
2023-04-05T03:40:42.688Z,2.43
2023-04-05T03:41:42.678Z,2.40
2023-04-05T03:42:42.640Z,2.41
2023-04-05T03:43:42.627Z,2.40
2023-04-05T03:44:42.580Z,2.40
2023-04-05T03:45:42.750Z,2.40
2023-04-05T03:46:42.573Z,2.40
2023-04-05T03:47:42.635Z,2.37
2023-04-05T03:48:42.560Z,2.37
2023-04-05T03:49:42.564Z,2.33
2023-04-05T03:50:42.518Z,2.32
2023-04-05T03:51:42.505Z,2.33
2023-04-05T03:52:42.478Z,2.33
2023-04-05T03:53:42.484Z,2.32
2023-04-05T03:54:42.478Z,2.30
2023-04-05T03:55:42.629Z,2.30
2023-04-05T03:56:42.464Z,2.27
2023-04-05T03:57:42.484Z,2.26
2023-04-05T03:58:42.441Z,2.25
2023-04-05T03:59:42.389Z,2.26
2023-04-05T04:00:42.426Z,2.23
2023-04-05T04:01:42.491Z,2.23
2023-04-05T04:02:42.406Z,2.22
2023-04-05T04:03:42.378Z,2.23
2023-04-05T04:04:42.333Z,2.23
2023-04-05T04:05:42.756Z,2.22
2023-04-05T04:06:42.325Z,2.20
2023-04-05T04:07:42.315Z,2.19
2023-04-05T04:08:42.261Z,2.20
2023-04-05T04:09:42.287Z,2.18
2023-04-05T04:10:42.302Z,2.15
2023-04-05T04:11:42.275Z,2.15
2023-04-05T04:12:42.242Z,2.15
2023-04-05T04:13:42.210Z,2.15
2023-04-05T04:14:42.205Z,2.09
2023-04-05T04:15:42.474Z,2.09
2023-04-05T04:16:42.208Z,2.09
2023-04-05T04:17:42.200Z,2.05
2023-04-05T04:18:42.187Z,2.02
2023-04-05T04:19:42.135Z,2.02
2023-04-05T04:20:42.166Z,2.02
2023-04-05T04:21:42.128Z,2.02
2023-04-05T04:22:42.105Z,2.00
2023-04-05T04:23:42.160Z,1.98
2023-04-05T04:24:42.049Z,1.98
2023-04-05T04:25:42.305Z,1.98
2023-04-05T04:26:42.030Z,1.93
2023-04-05T04:27:42.114Z,1.95
2023-04-05T04:28:41.994Z,1.92
2023-04-05T04:29:42.005Z,1.90
2023-04-05T04:30:42.013Z,1.92
2023-04-05T04:31:42.030Z,1.92
2023-04-05T04:32:41.996Z,1.93
2023-04-05T04:33:41.956Z,1.93
2023-04-05T04:34:41.929Z,1.93
2023-04-05T04:35:42.297Z,1.93
2023-04-05T04:36:41.953Z,1.95
2023-04-05T04:37:41.904Z,1.95
2023-04-05T04:38:41.894Z,1.98
2023-04-05T04:39:41.887Z,1.98
2023-04-05T04:40:41.895Z,1.98
2023-04-05T04:41:41.846Z,2.01
2023-04-05T04:42:41.850Z,2.00
2023-04-05T04:43:41.849Z,1.95
2023-04-05T04:44:41.821Z,1.95
2023-04-05T04:45:42.156Z,1.93
2023-04-05T04:46:41.799Z,1.93
2023-04-05T04:47:41.819Z,1.93
2023-04-05T04:48:41.769Z,1.93
2023-04-05T04:49:41.771Z,1.93
2023-04-05T04:50:41.817Z,1.93
2023-04-05T04:51:41.770Z,1.95
2023-04-05T04:52:41.713Z,1.98
2023-04-05T04:53:41.769Z,1.92
2023-04-05T04:54:41.698Z,1.93
2023-04-05T04:55:41.959Z,1.93
2023-04-05T04:56:41.676Z,1.98
2023-04-05T04:57:41.686Z,1.95
2023-04-05T04:58:41.619Z,1.95
2023-04-05T04:59:41.642Z,1.98
2023-04-05T05:00:41.792Z,1.95
2023-04-05T05:01:41.602Z,1.98
2023-04-05T05:02:41.618Z,1.98
2023-04-05T05:03:41.645Z,1.95
2023-04-05T05:04:41.617Z,1.95
2023-04-05T05:05:41.635Z,1.95
2023-04-05T05:06:41.557Z,1.93
2023-04-05T05:07:41.542Z,1.93
2023-04-05T05:08:41.532Z,1.93
2023-04-05T05:09:41.532Z,1.92
2023-04-05T05:10:41.807Z,1.92
2023-04-05T05:11:41.492Z,1.92
2023-04-05T05:12:41.489Z,1.90
2023-04-05T05:13:41.451Z,1.88
2023-04-05T05:14:41.413Z,1.90
2023-04-05T05:15:41.454Z,1.92
2023-04-05T05:16:41.468Z,1.92
2023-04-05T05:17:41.466Z,1.92
2023-04-05T05:18:41.432Z,1.93
2023-04-05T05:19:41.374Z,1.93
2023-04-05T05:20:41.609Z,1.92
2023-04-05T05:21:41.387Z,1.95
2023-04-05T05:22:41.315Z,1.93
2023-04-05T05:23:41.343Z,1.92
2023-04-05T05:24:41.336Z,1.93
2023-04-05T05:25:42.725Z,1.95
2023-04-05T05:26:41.274Z,2.00
2023-04-05T05:27:41.322Z,1.98
2023-04-05T05:28:41.236Z,1.98
2023-04-05T05:29:41.267Z,2.00
2023-04-05T05:30:41.515Z,2.01
2023-04-05T05:31:41.259Z,2.01
2023-04-05T05:32:42.542Z,2.01
2023-04-05T05:33:41.248Z,2.02
2023-04-05T05:34:42.125Z,2.02
2023-04-05T05:35:41.252Z,2.02
2023-04-05T05:36:41.206Z,2.02
2023-04-05T05:37:41.182Z,2.05
2023-04-05T05:38:41.140Z,2.07
2023-04-05T05:39:41.155Z,2.07
2023-04-05T05:40:41.270Z,2.08
2023-04-05T05:41:41.109Z,2.07
2023-04-05T05:42:41.078Z,2.08
2023-04-05T05:43:41.062Z,2.09
2023-04-05T05:44:41.066Z,2.11
2023-04-05T05:45:41.029Z,2.11
2023-04-05T05:46:41.176Z,2.11
2023-04-05T05:47:41.028Z,2.12
2023-04-05T05:48:41.008Z,2.12
2023-04-05T05:49:41.019Z,2.15
2023-04-05T05:50:41.182Z,2.18
2023-04-05T05:51:41.013Z,2.15
2023-04-05T05:52:40.941Z,2.19
2023-04-05T05:53:40.951Z,2.20
2023-04-05T05:54:40.932Z,2.20
2023-04-05T05:55:41.014Z,2.22
2023-04-05T05:56:40.895Z,2.25
2023-04-05T05:57:40.891Z,2.27
2023-04-05T05:58:40.879Z,2.30
2023-04-05T05:59:41.204Z,2.30
2023-04-05T06:00:41.140Z,2.30
2023-04-05T06:01:40.881Z,2.32
2023-04-05T06:02:40.865Z,2.36
2023-04-05T06:03:40.935Z,2.37
2023-04-05T06:04:40.857Z,2.40
2023-04-05T06:05:40.785Z,2.40
2023-04-05T06:06:40.811Z,2.40
2023-04-05T06:07:40.764Z,2.43
2023-04-05T06:08:40.749Z,2.47
2023-04-05T06:09:41.733Z,2.51
2023-04-05T06:10:40.866Z,2.56
2023-04-05T06:11:53.150Z,2.59
2023-04-05T06:12:41.675Z,2.59
2023-04-05T06:13:40.672Z,2.58
2023-04-05T06:14:40.677Z,2.61
2023-04-05T06:15:40.678Z,2.59
2023-04-05T06:16:40.684Z,2.61
2023-04-05T06:17:40.673Z,2.63
2023-04-05T06:18:40.607Z,2.62
2023-04-05T06:19:40.629Z,2.66
2023-04-05T06:20:40.835Z,2.63
2023-04-05T06:21:40.616Z,2.69
2023-04-05T06:22:41.605Z,2.71
2023-04-05T06:23:40.567Z,2.76
2023-04-05T06:24:40.544Z,2.79
2023-04-05T06:25:40.575Z,2.81
2023-04-05T06:26:40.514Z,2.83
2023-04-05T06:27:40.539Z,2.83
2023-04-05T06:28:40.494Z,2.84
2023-04-05T06:29:40.463Z,2.87
2023-04-05T06:30:40.622Z,2.90
2023-04-05T06:31:40.525Z,2.95
2023-04-05T06:32:40.452Z,2.99
2023-04-05T06:33:40.443Z,3.04
2023-04-05T06:34:40.420Z,3.07
2023-04-05T06:35:40.716Z,3.12
2023-04-05T06:36:40.398Z,3.20
2023-04-05T06:37:40.396Z,3.28
2023-04-05T06:38:40.401Z,3.31
2023-04-05T06:39:40.359Z,3.34
2023-04-05T06:40:40.659Z,3.39
2023-04-05T06:41:40.345Z,3.42
2023-04-05T06:42:40.298Z,3.45
2023-04-05T06:43:40.298Z,3.52
2023-04-05T06:44:40.274Z,3.54
2023-04-05T06:45:40.350Z,3.60
2023-04-05T06:46:40.276Z,3.62
2023-04-05T06:47:40.267Z,3.70
2023-04-05T06:48:40.236Z,3.75
2023-04-05T06:49:40.285Z,3.78
2023-04-05T06:50:40.435Z,3.80
2023-04-05T06:51:40.228Z,3.82
2023-04-05T06:52:40.216Z,3.84
2023-04-05T06:53:40.174Z,3.88
2023-04-05T06:54:40.164Z,3.90
2023-04-05T06:55:40.152Z,3.90
2023-04-05T06:56:40.141Z,3.95
2023-04-05T06:57:40.164Z,3.98
2023-04-05T06:58:40.164Z,4.04
2023-04-05T06:59:40.080Z,4.06
2023-04-05T07:00:40.257Z,4.08
2023-04-05T07:01:40.174Z,4.13
2023-04-05T07:02:40.115Z,4.16
2023-04-05T07:03:40.047Z,4.20
2023-04-05T07:04:40.039Z,4.25
2023-04-05T07:05:40.055Z,4.32
2023-04-05T07:06:40.045Z,4.36
2023-04-05T07:07:39.978Z,4.43
2023-04-05T07:08:39.958Z,4.46
2023-04-05T07:09:40.035Z,4.51
2023-04-05T07:10:40.163Z,4.59
2023-04-05T07:11:39.949Z,4.64
2023-04-05T07:12:39.928Z,4.67
2023-04-05T07:13:39.899Z,4.69
2023-04-05T07:14:39.889Z,4.69
2023-04-05T07:15:39.891Z,4.71
2023-04-05T07:16:39.912Z,4.71
2023-04-05T07:17:39.880Z,4.74
2023-04-05T07:18:39.818Z,4.75
2023-04-05T07:19:39.853Z,4.79
2023-04-05T07:20:40.147Z,4.80
2023-04-05T07:21:39.869Z,4.83
2023-04-05T07:22:39.802Z,4.88
2023-04-05T07:23:39.805Z,4.91
2023-04-05T07:24:39.794Z,4.96
2023-04-05T07:25:39.873Z,4.96
2023-04-05T07:26:39.766Z,5.01
2023-04-05T07:27:39.902Z,5.04
2023-04-05T07:28:39.758Z,5.08
2023-04-05T07:29:39.714Z,5.09
2023-04-05T07:30:39.872Z,5.14
2023-04-05T07:31:39.747Z,5.20
2023-04-05T07:32:39.747Z,5.24
2023-04-05T07:33:39.687Z,5.24
2023-04-05T07:34:39.646Z,5.29
2023-04-05T07:35:39.647Z,5.33
2023-04-05T07:36:39.679Z,5.40
2023-04-05T07:37:39.615Z,5.41
2023-04-05T07:38:39.586Z,5.45
2023-04-05T07:39:39.800Z,5.52
2023-04-05T07:40:39.778Z,5.59
2023-04-05T07:41:50.277Z,5.60
2023-04-05T07:42:39.978Z,5.65
2023-04-05T07:43:40.280Z,5.65
2023-04-05T07:44:39.615Z,5.65
2023-04-05T07:45:39.534Z,5.70
2023-04-05T07:46:39.590Z,5.73
2023-04-05T07:47:39.797Z,5.74
2023-04-05T07:48:39.710Z,5.77
2023-04-05T07:49:39.489Z,5.80
2023-04-05T07:50:39.679Z,5.83
2023-04-05T07:51:39.441Z,5.87
2023-04-05T07:52:39.506Z,5.88
2023-04-05T07:53:39.551Z,5.92
2023-04-05T07:54:39.405Z,5.92
2023-04-05T07:55:39.761Z,5.95
2023-04-05T07:56:49.032Z,5.95
2023-04-05T07:57:39.343Z,5.95
2023-04-05T07:58:39.387Z,5.98
2023-04-05T07:59:39.346Z,5.99
2023-04-05T08:00:39.592Z,6.03
2023-04-05T08:01:39.371Z,6.03
2023-04-05T08:02:39.402Z,6.08
2023-04-05T08:03:39.571Z,6.13
2023-04-05T08:04:39.398Z,6.13
2023-04-05T08:05:39.250Z,6.11
2023-04-05T08:06:39.276Z,6.13
2023-04-05T08:07:39.226Z,6.17
2023-04-05T08:08:39.200Z,6.24
2023-04-05T08:09:39.201Z,6.27
2023-04-05T08:10:39.415Z,6.30
2023-04-05T08:11:39.248Z,6.35
2023-04-05T08:12:39.199Z,6.33
2023-04-05T08:13:39.140Z,6.36
2023-04-05T08:14:39.130Z,6.42
2023-04-05T08:15:39.278Z,6.48
2023-04-05T08:16:39.164Z,6.50
2023-04-05T08:17:39.133Z,6.54
2023-04-05T08:18:39.080Z,6.53
2023-04-05T08:19:39.027Z,6.55
2023-04-05T08:20:39.796Z,6.60
2023-04-05T08:21:39.952Z,6.63
2023-04-05T08:22:39.053Z,6.65
2023-04-05T08:23:39.030Z,6.71
2023-04-05T08:24:39.096Z,6.75
2023-04-05T08:25:40.686Z,6.76
2023-04-05T08:26:39.040Z,6.79
2023-04-05T08:27:38.994Z,6.89
2023-04-05T08:28:39.035Z,6.90
2023-04-05T08:29:38.902Z,6.93
2023-04-05T08:30:39.278Z,6.96
2023-04-05T08:31:38.930Z,6.94
2023-04-05T08:32:38.965Z,6.91
2023-04-05T08:33:38.885Z,6.90
2023-04-05T08:34:38.933Z,6.94
2023-04-05T08:35:38.990Z,6.97
2023-04-05T08:36:38.925Z,7.00
2023-04-05T08:37:38.859Z,7.05
2023-04-05T08:38:38.846Z,7.08
2023-04-05T08:39:38.938Z,7.11
2023-04-05T08:40:39.013Z,7.11
2023-04-05T08:41:38.805Z,7.14
2023-04-05T08:42:38.810Z,7.14
2023-04-05T08:43:38.720Z,7.18
2023-04-05T08:44:38.718Z,7.21
2023-04-05T08:45:38.739Z,7.23
2023-04-05T08:46:38.742Z,7.24
2023-04-05T08:47:39.034Z,7.27
2023-04-05T08:48:40.453Z,7.27
2023-04-05T08:49:38.689Z,7.36
2023-04-05T08:50:38.923Z,7.44
2023-04-05T08:51:38.679Z,7.47
2023-04-05T08:52:38.652Z,7.51
2023-04-05T08:53:38.597Z,7.54
2023-04-05T08:54:38.592Z,7.58
2023-04-05T08:55:38.611Z,7.55
2023-04-05T08:56:38.616Z,7.54
2023-04-05T08:57:38.584Z,7.57
2023-04-05T08:58:38.573Z,7.62
2023-04-05T08:59:38.600Z,7.67
2023-04-05T09:00:38.674Z,7.70
2023-04-05T09:01:38.656Z,7.76
2023-04-05T09:02:39.000Z,7.77
2023-04-05T09:03:38.962Z,7.81
2023-04-05T09:04:38.824Z,7.81
2023-04-05T09:05:38.885Z,7.77
2023-04-05T09:06:38.623Z,7.74
2023-04-05T09:07:38.641Z,7.81
2023-04-05T09:08:38.837Z,7.82
2023-04-05T09:09:38.477Z,7.82
2023-04-05T09:10:38.829Z,7.88
2023-04-05T09:11:38.720Z,7.88
2023-04-05T09:12:38.667Z,7.88
2023-04-05T09:13:38.679Z,7.89
2023-04-05T09:14:38.590Z,7.92
2023-04-05T09:15:38.625Z,7.96
2023-04-05T09:16:38.610Z,8.03
2023-04-05T09:17:38.726Z,8.03
2023-04-05T09:18:38.533Z,8.04
2023-04-05T09:19:38.416Z,8.09
2023-04-05T09:20:38.475Z,8.12
2023-04-05T09:21:38.334Z,8.14
2023-04-05T09:22:38.261Z,8.12
2023-04-05T09:23:38.374Z,8.13
2023-04-05T09:24:38.288Z,8.12
2023-04-05T09:25:38.228Z,8.12
2023-04-05T09:26:38.302Z,8.09
2023-04-05T09:27:38.197Z,8.09
2023-04-05T09:28:38.215Z,8.12
2023-04-05T09:29:38.142Z,8.13
2023-04-05T09:30:38.182Z,8.12
2023-04-05T09:31:38.207Z,8.13
2023-04-05T09:32:38.228Z,8.17
2023-04-05T09:33:38.517Z,8.18
2023-04-05T09:34:38.240Z,8.25
2023-04-05T09:35:39.107Z,8.28
2023-04-05T09:36:38.214Z,8.31
2023-04-05T09:37:38.053Z,8.40
2023-04-05T09:38:38.097Z,8.46
2023-04-05T09:39:38.045Z,8.49
2023-04-05T09:40:38.040Z,8.49
2023-04-05T09:41:37.978Z,8.54
2023-04-05T09:42:38.075Z,8.58
2023-04-05T09:43:38.017Z,8.63
2023-04-05T09:44:39.706Z,8.70
2023-04-05T09:45:37.961Z,8.70
2023-04-05T09:46:38.547Z,8.64
2023-04-05T09:47:37.991Z,8.61
2023-04-05T09:48:38.023Z,8.63
2023-04-05T09:49:37.908Z,8.61
2023-04-05T09:50:37.880Z,8.60
2023-04-05T09:51:37.909Z,8.61
2023-04-05T09:52:38.825Z,8.64
2023-04-05T09:53:37.887Z,8.68
2023-04-05T09:54:37.931Z,8.68
2023-04-05T09:55:37.848Z,8.73
2023-04-05T09:56:37.877Z,8.73
2023-04-05T09:57:37.840Z,8.78
2023-04-05T09:58:37.854Z,8.79
2023-04-05T09:59:37.957Z,8.80
2023-04-05T10:00:37.868Z,8.82
2023-04-05T10:01:40.557Z,8.79
2023-04-05T10:02:37.985Z,8.79
2023-04-05T10:03:41.103Z,8.80
2023-04-05T10:04:37.752Z,8.78
2023-04-05T10:05:37.880Z,8.73
2023-04-05T10:16:20.703Z,8.57
2023-04-05T10:17:20.416Z,8.60
2023-04-05T10:18:20.493Z,8.65
2023-04-05T10:19:20.969Z,8.71
2023-04-05T10:20:25.609Z,8.78
2023-04-05T10:21:20.517Z,8.80
2023-04-05T10:22:20.601Z,8.86
2023-04-05T10:23:20.565Z,8.94
2023-04-05T10:24:20.278Z,9.00
2023-04-05T10:25:20.857Z,9.04
2023-04-05T10:26:20.313Z,9.08
2023-04-05T10:27:20.837Z,9.06
2023-04-05T10:28:21.275Z,9.12
2023-04-05T10:29:20.369Z,9.10
2023-04-05T10:30:20.299Z,9.13
2023-04-05T10:31:34.201Z,9.17
2023-04-05T10:32:21.262Z,9.15
2023-04-05T10:33:22.200Z,9.06
2023-04-05T10:34:20.324Z,8.98
2023-04-05T10:35:20.239Z,8.98
2023-04-05T10:36:20.241Z,8.93
2023-04-05T10:37:20.143Z,8.89
2023-04-05T10:38:20.210Z,8.91
2023-04-05T10:39:21.245Z,8.94
2023-04-05T10:40:20.208Z,8.98
2023-04-05T10:41:20.407Z,9.04
2023-04-05T10:42:20.157Z,9.12
2023-04-05T10:43:20.166Z,9.16
2023-04-05T10:44:26.305Z,9.22
2023-04-05T10:45:21.691Z,9.23
2023-04-05T10:46:20.887Z,9.27
2023-04-05T10:47:20.504Z,9.30
2023-04-05T10:48:20.071Z,9.31
2023-04-05T10:49:19.983Z,9.32
2023-04-05T10:50:20.107Z,9.32
2023-04-05T10:51:19.907Z,9.32
2023-04-05T10:52:19.883Z,9.30
2023-04-05T10:53:19.916Z,9.26
2023-04-05T10:54:19.962Z,9.24
2023-04-05T10:55:19.984Z,9.24
2023-04-05T10:56:20.772Z,9.27
2023-04-05T10:57:19.859Z,9.31
2023-04-05T10:58:19.838Z,9.34
2023-04-05T10:59:19.986Z,9.35
2023-04-05T11:00:19.944Z,9.40
2023-04-05T11:01:20.345Z,9.40
2023-04-05T11:02:19.933Z,9.42
2023-04-05T11:03:19.925Z,9.48
2023-04-05T11:04:20.013Z,9.53
2023-04-05T11:05:19.981Z,9.56
2023-04-05T11:06:20.712Z,9.59
2023-04-05T11:07:19.952Z,9.65
2023-04-05T11:08:19.737Z,9.65
2023-04-05T11:09:19.839Z,9.65
2023-04-05T11:10:19.698Z,9.65
2023-04-05T11:11:19.673Z,9.59
2023-04-05T11:12:19.752Z,9.58
2023-04-05T11:13:19.690Z,9.58
2023-04-05T11:14:19.702Z,9.63
2023-04-05T11:15:19.928Z,9.63
2023-04-05T11:16:19.671Z,9.67
2023-04-05T11:17:19.583Z,9.68
2023-04-05T11:18:19.741Z,9.67
2023-04-05T11:19:19.617Z,9.70
2023-04-05T11:20:19.703Z,9.73
2023-04-05T11:21:19.565Z,9.78
2023-04-05T11:22:19.738Z,9.85
2023-04-05T11:23:19.526Z,9.89
2023-04-05T11:24:19.559Z,9.88
2023-04-05T11:25:19.538Z,9.91
2023-04-05T11:26:19.486Z,9.89
2023-04-05T11:27:19.714Z,9.88
2023-04-05T11:28:19.521Z,9.86
2023-04-05T11:29:19.469Z,9.81
2023-04-05T11:30:19.637Z,9.83
2023-04-05T11:31:19.846Z,9.80
2023-04-05T11:32:19.517Z,9.78
2023-04-05T11:33:19.532Z,9.78
2023-04-05T11:34:19.696Z,9.80
2023-04-05T11:35:19.544Z,9.81
2023-04-05T11:36:19.446Z,9.86
2023-04-05T11:37:19.600Z,9.92
2023-04-05T11:38:19.607Z,9.96
2023-04-05T11:39:19.567Z,9.95
2023-04-05T11:40:19.447Z,9.96
2023-04-05T11:41:21.711Z,9.96
2023-04-05T11:42:19.340Z,9.99
2023-04-05T11:43:19.500Z,10.01
2023-04-05T11:44:19.541Z,10.06
2023-04-05T11:45:19.420Z,10.06
2023-04-05T11:46:19.349Z,10.04
2023-04-05T11:47:19.341Z,10.06
2023-04-05T11:48:19.292Z,10.10
2023-04-05T11:49:19.259Z,10.13
2023-04-05T11:50:19.372Z,10.11
2023-04-05T11:51:19.216Z,10.11
2023-04-05T11:52:19.382Z,10.14
2023-04-05T11:53:20.190Z,10.18
2023-04-05T11:54:19.168Z,10.18
2023-04-05T11:55:19.232Z,10.22
2023-04-05T11:56:19.160Z,10.24
2023-04-05T11:57:19.224Z,10.13
2023-04-05T11:58:19.151Z,10.13
2023-04-05T11:59:19.163Z,10.11
2023-04-05T12:00:19.195Z,10.06
2023-04-05T12:01:22.100Z,9.99
2023-04-05T12:02:19.262Z,9.92
2023-04-05T12:03:19.218Z,9.92
2023-04-05T12:04:19.120Z,9.91
2023-04-05T12:05:18.997Z,9.88
2023-04-05T12:06:19.139Z,9.88
2023-04-05T12:07:19.029Z,9.83
2023-04-05T12:08:19.046Z,9.81
2023-04-05T12:09:19.016Z,9.85
2023-04-05T12:10:18.976Z,9.86
2023-04-05T12:11:18.872Z,9.89
2023-04-05T12:12:18.960Z,9.86
2023-04-05T12:13:18.872Z,9.85
2023-04-05T12:14:19.180Z,9.89
2023-04-05T12:15:19.293Z,9.91
2023-04-05T12:16:18.891Z,9.92
2023-04-05T12:17:18.919Z,9.99
2023-04-05T12:18:18.916Z,10.06
2023-04-05T12:19:19.229Z,10.10
2023-04-05T12:20:19.011Z,10.11
2023-04-05T12:21:18.840Z,10.06
2023-04-05T12:22:18.787Z,10.09
2023-04-05T12:23:18.951Z,9.99
2023-04-05T12:24:19.029Z,9.88
2023-04-05T12:25:18.793Z,9.88
2023-04-05T12:26:18.746Z,9.88
2023-04-05T12:27:18.709Z,9.92
2023-04-05T12:28:18.670Z,9.98
2023-04-05T12:29:18.698Z,10.06
2023-04-05T12:30:18.696Z,10.09
2023-04-05T12:31:18.816Z,10.09
2023-04-05T12:32:18.640Z,10.09
2023-04-05T12:33:18.640Z,10.09
2023-04-05T12:34:18.682Z,10.10
2023-04-05T12:35:18.630Z,10.07
2023-04-05T12:36:18.597Z,10.07
2023-04-05T12:37:18.565Z,10.09
2023-04-05T12:38:18.570Z,10.13
2023-04-05T12:39:18.577Z,10.14
2023-04-05T12:40:18.543Z,10.14
2023-04-05T12:41:18.529Z,10.09
2023-04-05T12:42:18.510Z,10.02
2023-04-05T12:43:18.506Z,9.96
2023-04-05T12:44:18.470Z,9.91
2023-04-05T12:45:18.545Z,9.93
2023-04-05T12:46:18.534Z,9.98
2023-04-05T12:47:18.486Z,9.96
2023-04-05T12:48:18.442Z,9.95
2023-04-05T12:49:18.501Z,9.99
2023-04-05T12:50:18.423Z,10.06
2023-04-05T12:51:18.421Z,10.11
2023-04-05T12:52:18.409Z,10.17
2023-04-05T12:53:18.421Z,10.18
2023-04-05T12:54:18.634Z,10.24
2023-04-05T12:55:18.354Z,10.28
2023-04-05T12:56:18.474Z,10.29
2023-04-05T12:57:18.428Z,10.29
2023-04-05T12:58:18.418Z,10.29
2023-04-05T12:59:18.315Z,10.31
2023-04-05T13:00:18.362Z,10.34
2023-04-05T13:01:18.290Z,10.38
2023-04-05T13:02:18.402Z,10.38
2023-04-05T13:03:18.979Z,10.38
2023-04-05T13:04:18.259Z,10.38
2023-04-05T13:05:18.249Z,10.35
2023-04-05T13:06:18.315Z,10.36
2023-04-05T13:07:18.287Z,10.35
2023-04-05T13:08:18.303Z,10.32
2023-04-05T13:09:18.204Z,10.31
2023-04-05T13:10:18.262Z,10.28
2023-04-05T13:11:18.154Z,10.20
2023-04-05T13:12:18.138Z,10.13
2023-04-05T13:13:18.375Z,10.13
2023-04-05T13:14:18.115Z,10.10
2023-04-05T13:15:18.109Z,10.10
2023-04-05T13:16:18.253Z,10.16
2023-04-05T13:17:18.160Z,10.16
2023-04-05T13:18:18.087Z,10.22
2023-04-05T13:19:18.072Z,10.25
2023-04-05T13:20:18.055Z,10.28
2023-04-05T13:21:18.008Z,10.31
2023-04-05T13:22:18.018Z,10.31
2023-04-05T13:23:18.001Z,10.31
2023-04-05T13:24:17.966Z,10.31
2023-04-05T13:25:18.206Z,10.32
2023-04-05T13:26:18.069Z,10.26